Time;durP1;ratioP1;P1;durP2;ratioP2;P2;SDS_P1;SDS_P2;PMS_P1;PMS_P2;Temp;Humidity;BMP_temperature;BMP_pressure;BME280_temperature;BME280_humidity;BME280_pressure;Samples;Min_cycle;Max_cycle;Signal;HPM_P1;HPM_P2
2021/07/05 00:01:40;;;;;;;7.93;7.13;;;;;;;;;;256838;1093;103506;-76
2021/07/05 00:06:42;;;;;;;8.00;7.33;;;;;;;;;;256920;1095;103087;-75
2021/07/05 00:11:44;;;;;;;7.28;6.58;;;;;;;;;;256412;1096;103241;-74
2021/07/05 00:16:46;;;;;;;8.05;7.40;;;;;;;;;;256689;1095;103094;-72
2021/07/05 00:21:49;;;;;;;7.23;6.73;;;;;;;;;;256738;1093;103566;-73
2021/07/05 00:26:51;;;;;;;7.73;6.80;;;;;;;;;;258978;1096;103450;-72
2021/07/05 00:31:52;;;;;;;6.65;6.05;;;;;;;;;;258040;1093;103069;-72
2021/07/05 00:36:54;;;;;;;8.23;7.00;;;;;;;;;;257390;1092;103015;-73
2021/07/05 00:41:56;;;;;;;7.83;7.23;;;;;;;;;;256822;1093;103086;-73
2021/07/05 00:46:58;;;;;;;7.83;7.13;;;;;;;;;;256644;1094;103092;-73
2021/07/05 00:52:00;;;;;;;7.90;7.28;;;;;;;;;;256514;1093;102993;-76
2021/07/05 00:57:03;;;;;;;9.35;8.30;;;;;;;;;;256082;1092;103033;-72
2021/07/05 01:02:04;;;;;;;10.40;8.50;;;;;;;;;;256510;1093;103030;-73
2021/07/05 01:07:06;;;;;;;9.47;8.60;;;;;;;;;;256696;1095;103168;-73
2021/07/05 01:12:09;;;;;;;10.28;9.38;;;;;;;;;;256769;1093;103117;-72
2021/07/05 01:17:13;;;;;;;13.55;11.83;;;;;;;;;;256715;1093;103100;-74
2021/07/05 01:22:17;;;;;;;12.40;11.18;;;;;;;;;;256652;1096;102992;-74
2021/07/05 01:27:20;;;;;;;15.33;12.33;;;;;;;;;;256686;1093;103013;-73
2021/07/05 01:32:22;;;;;;;13.70;12.35;;;;;;;;;;256597;1093;103012;-76
2021/07/05 01:37:24;;;;;;;12.80;11.58;;;;;;;;;;255943;1095;103025;-75
2021/07/05 01:42:27;;;;;;;15.38;11.93;;;;;;;;;;255968;1092;103084;-75
2021/07/05 01:47:29;;;;;;;13.08;11.75;;;;;;;;;;256340;1093;103028;-75
2021/07/05 01:52:31;;;;;;;13.80;12.50;;;;;;;;;;256792;1093;103021;-74
2021/07/05 01:57:35;;;;;;;14.68;13.15;;;;;;;;;;256662;1095;103048;-72
2021/07/05 02:02:37;;;;;;;14.68;13.38;;;;;;;;;;256793;1093;103056;-73
2021/07/05 02:07:39;;;;;;;15.53;13.93;;;;;;;;;;256940;1093;103034;-73
2021/07/05 02:12:41;;;;;;;14.85;13.45;;;;;;;;;;256624;1091;103540;-73
2021/07/05 02:17:44;;;;;;;14.93;13.53;;;;;;;;;;256747;1094;103095;-73
2021/07/05 02:22:46;;;;;;;15.03;13.70;;;;;;;;;;256779;1095;103130;-73
2021/07/05 02:27:48;;;;;;;15.05;13.75;;;;;;;;;;256786;1093;103085;-73
2021/07/05 02:32:50;;;;;;;15.20;13.73;;;;;;;;;;256683;1093;103100;-72
2021/07/05 02:37:54;;;;;;;14.28;12.93;;;;;;;;;;256658;1094;103034;-71
2021/07/05 02:42:56;;;;;;;15.05;13.50;;;;;;;;;;255884;1093;103448;-73
2021/07/05 02:48:01;;;;;;;15.45;14.10;;;;;;;;;;256744;1093;103106;-73
2021/07/05 02:53:04;;;;;;;15.60;14.00;;;;;;;;;;256715;1092;103086;-74
2021/07/05 02:58:06;;;;;;;15.77;14.27;;;;;;;;;;256978;1094;110479;-72
2021/07/05 03:03:08;;;;;;;15.73;13.43;;;;;;;;;;256693;1097;103333;-75
2021/07/05 03:08:10;;;;;;;17.30;14.48;;;;;;;;;;255744;1095;103115;-74
2021/07/05 03:13:13;;;;;;;17.65;14.65;;;;;;;;;;255904;1097;103215;-75
2021/07/05 03:18:15;;;;;;;15.67;14.10;;;;;;;;;;256760;1096;103127;-73
2021/07/05 03:23:18;;;;;;;14.60;13.28;;;;;;;;;;256786;1094;103424;-72
2021/07/05 03:28:21;;;;;;;16.23;14.53;;;;;;;;;;256708;1093;102990;-72
2021/07/05 03:33:23;;;;;;;16.15;14.40;;;;;;;;;;256827;1094;103016;-73
2021/07/05 03:38:24;;;;;;;15.50;14.00;;;;;;;;;;256773;1095;102993;-70
2021/07/05 03:43:26;;;;;;;15.45;13.50;;;;;;;;;;256370;1094;102994;-74
2021/07/05 03:48:28;;;;;;;14.55;13.18;;;;;;;;;;261492;1095;102949;-76
2021/07/05 03:53:30;;;;;;;14.80;13.43;;;;;;;;;;259009;1094;103533;-73
2021/07/05 03:58:32;;;;;;;15.80;14.30;;;;;;;;;;259449;1094;103148;-73
2021/07/05 04:03:34;;;;;;;15.30;13.83;;;;;;;;;;259230;1093;103262;-76
2021/07/05 04:08:36;;;;;;;15.45;14.00;;;;;;;;;;261458;1095;102993;-74
2021/07/05 04:13:38;;;;;;;14.58;13.18;;;;;;;;;;257200;1095;103106;-78
2021/07/05 04:18:40;;;;;;;14.93;13.53;;;;;;;;;;257023;1095;103668;-74
2021/07/05 04:23:42;;;;;;;14.78;13.45;;;;;;;;;;256714;1091;103020;-72
2021/07/05 04:28:44;;;;;;;18.48;16.58;;;;;;;;;;257201;1093;103524;-76
2021/07/05 04:33:48;;;;;;;16.15;14.58;;;;;;;;;;259295;1095;102922;-78
2021/07/05 04:38:50;;;;;;;14.98;13.63;;;;;;;;;;256820;1093;103039;-78
2021/07/05 04:43:52;;;;;;;19.70;16.80;;;;;;;;;;256634;1093;102990;-77
2021/07/05 04:48:54;;;;;;;14.67;13.07;;;;;;;;;;257452;1093;103007;-77
2021/07/05 04:53:56;;;;;;;15.28;12.73;;;;;;;;;;256916;1096;103079;-72
2021/07/05 04:58:58;;;;;;;15.30;12.80;;;;;;;;;;256653;1092;103095;-73
2021/07/05 05:04:00;;;;;;;13.67;12.43;;;;;;;;;;256880;1093;103108;-72
2021/07/05 05:09:02;;;;;;;17.80;15.98;;;;;;;;;;256730;1093;103089;-73
2021/07/05 05:14:04;;;;;;;14.75;13.28;;;;;;;;;;256646;1095;103190;-72
2021/07/05 05:19:06;;;;;;;13.70;12.37;;;;;;;;;;255694;1093;103015;-73
2021/07/05 05:24:08;;;;;;;12.73;11.53;;;;;;;;;;256103;1093;103169;-73
2021/07/05 05:29:09;;;;;;;13.35;12.20;;;;;;;;;;255897;1093;103016;-72
2021/07/05 05:34:11;;;;;;;12.85;11.75;;;;;;;;;;256062;1096;103103;-73
2021/07/05 05:39:13;;;;;;;12.65;11.35;;;;;;;;;;256611;1093;103038;-73
2021/07/05 05:44:15;;;;;;;12.80;11.50;;;;;;;;;;256036;1093;103114;-73
2021/07/05 05:49:17;;;;;;;12.35;11.25;;;;;;;;;;256177;1093;103199;-74
2021/07/05 05:54:19;;;;;;;14.25;12.78;;;;;;;;;;256241;1094;103109;-74
2021/07/05 05:59:21;;;;;;;11.90;10.90;;;;;;;;;;255972;1096;104345;-73
2021/07/05 06:04:23;;;;;;;12.15;11.05;;;;;;;;;;256040;1097;103108;-75
2021/07/05 06:09:25;;;;;;;11.15;10.25;;;;;;;;;;256033;1096;103114;-74
2021/07/05 06:14:27;;;;;;;11.53;10.53;;;;;;;;;;257789;1096;103780;-77
2021/07/05 06:19:29;;;;;;;11.95;10.85;;;;;;;;;;257696;1093;103429;-73
2021/07/05 06:24:31;;;;;;;13.78;12.55;;;;;;;;;;256206;1093;103028;-74
2021/07/05 06:29:34;;;;;;;16.88;15.30;;;;;;;;;;255772;1093;103108;-74
2021/07/05 06:34:36;;;;;;;10.73;9.83;;;;;;;;;;256535;1095;103188;-72
2021/07/05 06:39:38;;;;;;;11.60;10.33;;;;;;;;;;256283;1093;103035;-72
2021/07/05 06:44:40;;;;;;;9.98;8.75;;;;;;;;;;255892;1093;103026;-73
2021/07/05 06:49:42;;;;;;;9.63;8.80;;;;;;;;;;256227;1093;103373;-74
2021/07/05 06:54:45;;;;;;;8.63;7.83;;;;;;;;;;255871;1095;103018;-71
2021/07/05 06:59:47;;;;;;;9.78;8.98;;;;;;;;;;255817;1093;103175;-74
2021/07/05 07:04:49;;;;;;;9.63;8.60;;;;;;;;;;257334;1092;103013;-73
2021/07/05 07:09:51;;;;;;;8.33;7.60;;;;;;;;;;259958;1093;102910;-73
2021/07/05 07:14:52;;;;;;;8.80;7.38;;;;;;;;;;256656;1095;103531;-72
2021/07/05 07:19:54;;;;;;;9.80;8.10;;;;;;;;;;256405;1095;103089;-74
2021/07/05 07:24:56;;;;;;;9.47;8.20;;;;;;;;;;256264;1093;103329;-74
2021/07/05 07:29:58;;;;;;;8.28;7.48;;;;;;;;;;256668;1093;103047;-73
2021/07/05 07:35:00;;;;;;;8.85;7.95;;;;;;;;;;258185;1095;103505;-73
2021/07/05 07:40:12;;;;;;;8.58;7.30;;;;;;;;;;256473;1093;103019;-74
2021/07/05 07:45:15;;;;;;;8.35;7.65;;;;;;;;;;255883;1093;103169;-74
2021/07/05 07:50:18;;;;;;;6.70;5.83;;;;;;;;;;256471;1093;103575;-72
2021/07/05 07:55:19;;;;;;;5.83;5.33;;;;;;;;;;256402;1095;103032;-74
2021/07/05 08:00:22;;;;;;;8.20;7.50;;;;;;;;;;256403;1092;103103;-75
2021/07/05 08:05:23;;;;;;;7.73;7.00;;;;;;;;;;256286;1093;103041;-74
2021/07/05 08:10:25;;;;;;;7.00;6.40;;;;;;;;;;256152;1092;103007;-72
2021/07/05 08:15:28;;;;;;;7.73;7.03;;;;;;;;;;255770;1096;103271;-73
2021/07/05 08:20:29;;;;;;;10.58;9.05;;;;;;;;;;256148;1093;103018;-74
2021/07/05 08:25:31;;;;;;;19.45;17.60;;;;;;;;;;255915;1093;103124;-74
2021/07/05 08:30:33;;;;;;;10.38;9.48;;;;;;;;;;256476;1095;103559;-74
2021/07/05 08:35:36;;;;;;;12.53;11.48;;;;;;;;;;255912;1093;103030;-74
2021/07/05 08:40:41;;;;;;;14.10;12.78;;;;;;;;;;256628;1093;103520;-72
2021/07/05 08:45:45;;;;;;;11.58;10.48;;;;;;;;;;256084;1097;103018;-73
2021/07/05 08:50:48;;;;;;;8.25;7.15;;;;;;;;;;256006;1093;103522;-72
2021/07/05 08:55:50;;;;;;;9.03;8.23;;;;;;;;;;256152;1093;103090;-73
2021/07/05 09:00:52;;;;;;;8.15;7.35;;;;;;;;;;256698;1093;103032;-73
2021/07/05 09:06:23;;;;;;;9.20;8.30;;;;;;;;;;256015;1095;103050;-74
2021/07/05 09:11:45;;;;;;;9.23;8.40;;;;;;;;;;255854;1093;103033;-73
2021/07/05 09:16:47;;;;;;;10.10;9.23;;;;;;;;;;256293;1093;103616;-73
2021/07/05 09:21:51;;;;;;;9.10;8.20;;;;;;;;;;256464;1092;103058;-74
2021/07/05 09:27:00;;;;;;;8.23;7.53;;;;;;;;;;256058;1096;103032;-75
2021/07/05 09:32:06;;;;;;;9.40;6.13;;;;;;;;;;256135;1093;103161;-71
2021/07/05 09:37:11;;;;;;;8.30;7.60;;;;;;;;;;256014;1092;104162;-74
2021/07/05 09:42:13;;;;;;;9.28;8.38;;;;;;;;;;256031;1093;103041;-74
2021/07/05 09:47:17;;;;;;;5.70;5.20;;;;;;;;;;256499;1097;103011;-74
2021/07/05 09:52:24;;;;;;;9.40;7.65;;;;;;;;;;256177;1093;103019;-73
2021/07/05 09:57:40;;;;;;;7.13;6.53;;;;;;;;;;256510;1093;103166;-73
2021/07/05 10:03:00;;;;;;;6.90;6.40;;;;;;;;;;256420;1096;103089;-75
2021/07/05 10:08:06;;;;;;;5.70;5.20;;;;;;;;;;256401;1095;103153;-75
2021/07/05 10:13:09;;;;;;;6.63;6.13;;;;;;;;;;256722;1093;104789;-73
2021/07/05 10:18:11;;;;;;;5.45;5.05;;;;;;;;;;256635;1092;103065;-73
2021/07/05 10:23:15;;;;;;;6.78;6.18;;;;;;;;;;256096;1091;103170;-74
2021/07/05 10:28:18;;;;;;;6.88;6.28;;;;;;;;;;257257;1095;102993;-74
2021/07/05 10:33:21;;;;;;;6.55;5.95;;;;;;;;;;257988;1093;103031;-73
2021/07/05 10:38:35;;;;;;;7.10;6.58;;;;;;;;;;258732;1093;102994;-74
2021/07/05 10:43:53;;;;;;;10.95;8.85;;;;;;;;;;257517;1092;103010;-75
2021/07/05 10:48:55;;;;;;;5.68;5.23;;;;;;;;;;257688;1096;103092;-74
2021/07/05 10:53:57;;;;;;;6.05;5.65;;;;;;;;;;258457;1095;103053;-75
2021/07/05 10:59:18;;;;;;;5.58;5.10;;;;;;;;;;257940;1093;103530;-74
2021/07/05 11:04:22;;;;;;;7.08;6.48;;;;;;;;;;257739;1093;103040;-75
2021/07/05 11:09:24;;;;;;;10.85;9.95;;;;;;;;;;257038;1094;103031;-73
2021/07/05 11:14:28;;;;;;;10.13;9.33;;;;;;;;;;256626;1093;103121;-74
2021/07/05 11:19:30;;;;;;;;;;;;;;;;;;257060;1093;103103;-73
2021/07/05 11:24:33;;;;;;;7.60;6.87;;;;;;;;;;256717;1093;103103;-73
2021/07/05 11:29:44;;;;;;;5.73;5.33;;;;;;;;;;255861;1096;103110;-74
2021/07/05 11:34:47;;;;;;;6.40;5.93;;;;;;;;;;256218;1093;103257;-74
2021/07/05 11:39:50;;;;;;;6.05;5.65;;;;;;;;;;256662;1091;103172;-74
2021/07/05 11:44:54;;;;;;;6.30;5.80;;;;;;;;;;256620;1092;103019;-74
2021/07/05 11:50:16;;;;;;;5.88;4.98;;;;;;;;;;256477;1096;103127;-75
2021/07/05 11:55:19;;;;;;;6.53;5.98;;;;;;;;;;256030;1093;103113;-74
2021/07/05 12:00:22;;;;;;;6.23;5.80;;;;;;;;;;255943;1093;103045;-74
2021/07/05 12:05:24;;;;;;;6.30;5.80;;;;;;;;;;255886;1093;103180;-73
2021/07/05 12:10:30;;;;;;;6.28;5.78;;;;;;;;;;257782;1097;103393;-74
2021/07/05 12:15:32;;;;;;;8.68;8.08;;;;;;;;;;262953;1093;102882;-75
2021/07/05 12:20:34;;;;;;;7.75;7.15;;;;;;;;;;261515;1093;103109;-74
2021/07/05 12:25:36;;;;;;;6.13;5.63;;;;;;;;;;255885;1093;103099;-73
2021/07/05 12:30:44;;;;;;;6.08;5.68;;;;;;;;;;256190;1095;103048;-73
2021/07/05 12:35:46;;;;;;;5.20;4.80;;;;;;;;;;255871;1093;103090;-74
2021/07/05 12:40:47;;;;;;;5.85;5.45;;;;;;;;;;255831;1092;103030;-74
2021/07/05 12:45:54;;;;;;;5.90;5.40;;;;;;;;;;255769;1092;103319;-75
2021/07/05 12:51:00;;;;;;;6.08;5.58;;;;;;;;;;256010;1095;103108;-74
2021/07/05 12:56:04;;;;;;;5.30;4.95;;;;;;;;;;256028;1093;103412;-72
2021/07/05 13:01:08;;;;;;;5.40;5.00;;;;;;;;;;256203;1093;103105;-74
2021/07/05 13:06:10;;;;;;;5.70;5.18;;;;;;;;;;256369;1093;103042;-73
2021/07/05 13:11:16;;;;;;;5.48;5.08;;;;;;;;;;257024;1095;103018;-73
2021/07/05 13:16:22;;;;;;;5.78;5.28;;;;;;;;;;256514;1093;103035;-74
2021/07/05 13:21:29;;;;;;;5.87;5.27;;;;;;;;;;256010;1093;103103;-72
2021/07/05 13:26:33;;;;;;;5.13;4.73;;;;;;;;;;255890;1093;103075;-73
2021/07/05 13:31:36;;;;;;;5.68;5.18;;;;;;;;;;256477;1093;103178;-74
2021/07/05 13:36:38;;;;;;;5.95;5.43;;;;;;;;;;255730;1092;103047;-74
2021/07/05 13:41:40;;;;;;;5.60;5.15;;;;;;;;;;255972;1092;103022;-74
2021/07/05 13:46:42;;;;;;;6.48;5.75;;;;;;;;;;256046;1093;103501;-73
2021/07/05 13:51:44;;;;;;;5.83;5.23;;;;;;;;;;255863;1094;103087;-74
2021/07/05 13:56:45;;;;;;;6.30;5.83;;;;;;;;;;256235;1093;103033;-72
2021/07/05 14:01:47;;;;;;;6.35;5.63;;;;;;;;;;255969;1095;103110;-75
2021/07/05 14:06:49;;;;;;;6.70;6.10;;;;;;;;;;257145;1093;103377;-74
2021/07/05 14:11:51;;;;;;;6.18;5.73;;;;;;;;;;259724;1095;103076;-73
2021/07/05 14:16:58;;;;;;;6.08;5.58;;;;;;;;;;256308;1094;103044;-74
2021/07/05 14:22:00;;;;;;;6.95;6.45;;;;;;;;;;256636;1093;103096;-77
2021/07/05 14:27:02;;;;;;;6.40;5.90;;;;;;;;;;257348;1093;103087;-74
2021/07/05 14:32:04;;;;;;;6.70;6.20;;;;;;;;;;256414;1095;103092;-74
2021/07/05 14:37:06;;;;;;;6.58;5.90;;;;;;;;;;256405;1094;103157;-72
2021/07/05 14:42:07;;;;;;;7.40;6.78;;;;;;;;;;255908;1093;103520;-71
2021/07/05 14:47:10;;;;;;;6.45;5.88;;;;;;;;;;255916;1092;103550;-73
2021/07/05 14:52:12;;;;;;;6.93;6.43;;;;;;;;;;256065;1097;103418;-74
2021/07/05 14:57:17;;;;;;;7.45;6.75;;;;;;;;;;256496;1097;103127;-74
2021/07/05 15:02:19;;;;;;;7.83;7.10;;;;;;;;;;259530;1091;103080;-73
2021/07/05 15:07:22;;;;;;;7.35;6.70;;;;;;;;;;256158;1093;103313;-74
2021/07/05 15:12:24;;;;;;;6.80;6.35;;;;;;;;;;256868;1094;103115;-73
2021/07/05 15:17:26;;;;;;;7.18;6.58;;;;;;;;;;256140;1095;103124;-74
2021/07/05 15:22:28;;;;;;;6.60;6.10;;;;;;;;;;255962;1093;103043;-74
2021/07/05 15:27:30;;;;;;;7.10;6.40;;;;;;;;;;255755;1093;103076;-73
2021/07/05 15:32:31;;;;;;;7.15;6.45;;;;;;;;;;255754;1093;103684;-74
2021/07/05 15:37:34;;;;;;;7.73;7.10;;;;;;;;;;256450;1094;103082;-73
2021/07/05 15:42:35;;;;;;;5.95;5.55;;;;;;;;;;256120;1093;103100;-73
2021/07/05 15:47:38;;;;;;;6.65;6.03;;;;;;;;;;255798;1093;103035;-73
2021/07/05 15:52:40;;;;;;;6.40;5.90;;;;;;;;;;255921;1093;103084;-75
2021/07/05 15:57:43;;;;;;;6.05;5.55;;;;;;;;;;256794;1095;103032;-75
2021/07/05 16:02:45;;;;;;;6.48;6.08;;;;;;;;;;256755;1093;103012;-75
2021/07/05 16:07:47;;;;;;;11.33;10.33;;;;;;;;;;255841;1093;103089;-73
2021/07/05 16:12:49;;;;;;;8.03;7.43;;;;;;;;;;256296;1095;103137;-73
2021/07/05 16:17:51;;;;;;;6.75;6.25;;;;;;;;;;256325;1095;103111;-74
2021/07/05 16:22:53;;;;;;;7.57;6.87;;;;;;;;;;256354;1094;103076;-74
2021/07/05 16:27:55;;;;;;;8.10;7.30;;;;;;;;;;256432;1092;103081;-75
2021/07/05 16:32:57;;;;;;;9.20;8.50;;;;;;;;;;256123;1093;103451;-73
2021/07/05 16:37:59;;;;;;;7.08;6.53;;;;;;;;;;255891;1095;103546;-73
2021/07/05 16:43:00;;;;;;;7.50;7.00;;;;;;;;;;256370;1096;103065;-76
2021/07/05 16:48:05;;;;;;;6.80;6.30;;;;;;;;;;256136;1093;103111;-76
2021/07/05 16:53:07;;;;;;;7.15;6.45;;;;;;;;;;256018;1096;103042;-74
2021/07/05 16:58:09;;;;;;;7.55;6.73;;;;;;;;;;255836;1095;103061;-73
2021/07/05 17:03:17;;;;;;;7.23;6.53;;;;;;;;;;257015;1093;103031;-73
2021/07/05 17:08:19;;;;;;;6.83;6.35;;;;;;;;;;256576;1093;103141;-74
2021/07/05 17:13:21;;;;;;;7.83;7.18;;;;;;;;;;256802;1093;103060;-72
2021/07/05 17:18:23;;;;;;;6.73;6.23;;;;;;;;;;256817;1095;103021;-75
2021/07/05 17:23:25;;;;;;;7.20;6.70;;;;;;;;;;256256;1093;103031;-74
2021/07/05 17:28:27;;;;;;;8.25;7.65;;;;;;;;;;256815;1093;103074;-74
2021/07/05 17:33:29;;;;;;;7.23;6.63;;;;;;;;;;256662;1095;103163;-74
2021/07/05 17:38:32;;;;;;;8.45;7.85;;;;;;;;;;255959;1094;103119;-73
2021/07/05 17:43:35;;;;;;;8.00;7.40;;;;;;;;;;259436;1093;103007;-75
2021/07/05 17:48:38;;;;;;;8.63;7.78;;;;;;;;;;256720;1093;103517;-75
2021/07/05 17:53:41;;;;;;;8.87;7.90;;;;;;;;;;256695;1095;103086;-75
2021/07/05 17:58:43;;;;;;;8.58;7.90;;;;;;;;;;256848;1095;103171;-72
2021/07/05 18:03:46;;;;;;;7.80;7.20;;;;;;;;;;256745;1095;103583;-73
2021/07/05 18:08:50;;;;;;;8.48;7.78;;;;;;;;;;256906;1093;103028;-72
2021/07/05 18:13:52;;;;;;;8.28;7.60;;;;;;;;;;256022;1095;103031;-71
2021/07/05 18:18:54;;;;;;;8.27;7.60;;;;;;;;;;255701;1092;103085;-73
2021/07/05 18:23:57;;;;;;;9.75;8.08;;;;;;;;;;256138;1093;103099;-72
2021/07/05 18:29:00;;;;;;;10.03;9.20;;;;;;;;;;255800;1094;103108;-73
2021/07/05 18:34:02;;;;;;;8.65;7.98;;;;;;;;;;256354;1093;103030;-72
2021/07/05 18:39:06;;;;;;;9.28;8.53;;;;;;;;;;256145;1094;103112;-71
2021/07/05 18:44:08;;;;;;;9.10;8.30;;;;;;;;;;255606;1093;103102;-72
2021/07/05 18:49:10;;;;;;;8.63;7.93;;;;;;;;;;255857;1092;103106;-72
2021/07/05 18:54:12;;;;;;;9.68;8.90;;;;;;;;;;256297;1094;103103;-69
2021/07/05 18:59:13;;;;;;;11.10;10.10;;;;;;;;;;255797;1092;103083;-71
2021/07/05 19:04:15;;;;;;;11.00;10.07;;;;;;;;;;256311;1093;103148;-73
2021/07/05 19:09:17;;;;;;;10.75;9.80;;;;;;;;;;255828;1093;103009;-75
2021/07/05 19:14:19;;;;;;;10.73;9.95;;;;;;;;;;256626;1095;103123;-73
2021/07/05 19:19:21;;;;;;;10.13;9.33;;;;;;;;;;256489;1094;103111;-71
2021/07/05 19:24:23;;;;;;;9.30;8.60;;;;;;;;;;256290;1095;103143;-71
2021/07/05 19:29:25;;;;;;;9.05;8.28;;;;;;;;;;256644;1095;103117;-70
2021/07/05 19:34:27;;;;;;;9.25;8.45;;;;;;;;;;255882;1095;103093;-74
2021/07/05 19:39:32;;;;;;;8.73;7.93;;;;;;;;;;255993;1094;103496;-72
2021/07/05 19:44:34;;;;;;;10.58;8.85;;;;;;;;;;255906;1095;103348;-72
2021/07/05 19:49:36;;;;;;;9.70;8.80;;;;;;;;;;256175;1093;103034;-75
2021/07/05 19:54:38;;;;;;;10.60;9.70;;;;;;;;;;256169;1095;103281;-72
2021/07/05 19:59:40;;;;;;;11.33;10.33;;;;;;;;;;255807;1096;103066;-75
2021/07/05 20:04:42;;;;;;;10.85;9.95;;;;;;;;;;255919;1095;103135;-76
2021/07/05 20:09:44;;;;;;;11.23;10.35;;;;;;;;;;256154;1093;103089;-72
2021/07/05 20:14:46;;;;;;;10.70;9.90;;;;;;;;;;256712;1093;103027;-73
2021/07/05 20:19:48;;;;;;;10.68;9.68;;;;;;;;;;255680;1094;103022;-75
2021/07/05 20:24:51;;;;;;;11.60;10.65;;;;;;;;;;255863;1093;103085;-71
2021/07/05 20:29:53;;;;;;;11.85;10.90;;;;;;;;;;255575;1093;103012;-71
2021/07/05 20:34:55;;;;;;;11.98;10.93;;;;;;;;;;255876;1094;103450;-72
2021/07/05 20:39:57;;;;;;;11.68;10.88;;;;;;;;;;255715;1096;103020;-74
2021/07/05 20:44:59;;;;;;;10.57;9.67;;;;;;;;;;255835;1094;102996;-74
2021/07/05 20:50:01;;;;;;;10.90;10.00;;;;;;;;;;255678;1096;103039;-74
2021/07/05 20:55:03;;;;;;;11.38;10.33;;;;;;;;;;255534;1093;103030;-76
2021/07/05 21:00:06;;;;;;;11.33;10.35;;;;;;;;;;255518;1093;103036;-74
2021/07/05 21:05:08;;;;;;;11.13;10.17;;;;;;;;;;255721;1093;103021;-75
2021/07/05 21:10:11;;;;;;;11.68;10.60;;;;;;;;;;256531;1093;103000;-74
2021/07/05 21:15:14;;;;;;;11.10;10.20;;;;;;;;;;257001;1093;103509;-72
2021/07/05 21:20:16;;;;;;;11.18;10.08;;;;;;;;;;256189;1096;103253;-76
2021/07/05 21:25:18;;;;;;;12.40;11.23;;;;;;;;;;256319;1097;103089;-75
2021/07/05 21:30:20;;;;;;;11.65;10.50;;;;;;;;;;256258;1093;103109;-74
2021/07/05 21:35:22;;;;;;;11.60;10.50;;;;;;;;;;256501;1094;103038;-75
2021/07/05 21:40:25;;;;;;;11.88;10.68;;;;;;;;;;256030;1097;103090;-74
2021/07/05 21:45:27;;;;;;;12.13;10.98;;;;;;;;;;256269;1093;103080;-71
2021/07/05 21:50:29;;;;;;;11.93;10.70;;;;;;;;;;255816;1093;103047;-73
2021/07/05 21:55:31;;;;;;;12.33;11.15;;;;;;;;;;255727;1095;103086;-73
2021/07/05 22:00:34;;;;;;;11.83;10.73;;;;;;;;;;255786;1096;103011;-73
2021/07/05 22:05:36;;;;;;;13.60;12.30;;;;;;;;;;256174;1093;103063;-75
2021/07/05 22:10:38;;;;;;;12.08;10.88;;;;;;;;;;256665;1093;103075;-74
2021/07/05 22:15:40;;;;;;;11.88;10.68;;;;;;;;;;255680;1093;103655;-73
2021/07/05 22:20:41;;;;;;;12.23;11.23;;;;;;;;;;255840;1094;103156;-74
2021/07/05 22:25:43;;;;;;;12.07;11.10;;;;;;;;;;256879;1094;103027;-72
2021/07/05 22:30:45;;;;;;;14.25;12.95;;;;;;;;;;255729;1093;103022;-72
2021/07/05 22:35:47;;;;;;;12.23;11.03;;;;;;;;;;255840;1093;103124;-73
2021/07/05 22:40:49;;;;;;;12.53;10.95;;;;;;;;;;256027;1096;103127;-73
2021/07/05 22:45:51;;;;;;;12.98;11.78;;;;;;;;;;256184;1097;103057;-73
2021/07/05 22:50:53;;;;;;;13.95;12.75;;;;;;;;;;256908;1096;103108;-73
2021/07/05 22:55:55;;;;;;;12.40;11.15;;;;;;;;;;256718;1093;103029;-72
2021/07/05 23:00:57;;;;;;;12.85;11.78;;;;;;;;;;256208;1093;105223;-73
2021/07/05 23:05:58;;;;;;;13.23;12.13;;;;;;;;;;256064;1095;103106;-74
2021/07/05 23:11:00;;;;;;;13.20;11.93;;;;;;;;;;255941;1092;103019;-73
2021/07/05 23:16:02;;;;;;;13.63;12.43;;;;;;;;;;255814;1094;103066;-76
2021/07/05 23:21:04;;;;;;;13.05;11.95;;;;;;;;;;256176;1093;104460;-73
2021/07/05 23:26:06;;;;;;;13.75;12.40;;;;;;;;;;256877;1096;103019;-74
2021/07/05 23:31:08;;;;;;;19.83;18.07;;;;;;;;;;256789;1094;103034;-75
2021/07/05 23:36:10;;;;;;;14.30;12.90;;;;;;;;;;256248;1092;103403;-73
2021/07/05 23:41:12;;;;;;;15.65;14.18;;;;;;;;;;255853;1095;102940;-72
2021/07/05 23:46:14;;;;;;;14.43;13.20;;;;;;;;;;255963;1095;103120;-72
2021/07/05 23:51:15;;;;;;;13.50;12.20;;;;;;;;;;256840;1093;103121;-71
2021/07/05 23:56:17;;;;;;;12.70;11.68;;;;;;;;;;257214;1093;103157;-71
